Time;durP1;ratioP1;P1;durP2;ratioP2;P2;SDS_P1;SDS_P2;PMS_P1;PMS_P2;Temp;Humidity;BMP_temperature;BMP_pressure;BME280_temperature;BME280_humidity;BME280_pressure;Samples;Min_cycle;Max_cycle;Signal;HPM_P1;HPM_P2
2022/11/20 00:03:57;;;;;;;14.87;6.33;;;2.50;99.90;;;-0.05;100.00;99799.47;10531911;28;20064;-82
2022/11/20 00:09:01;;;;;;;15.77;6.43;;;2.50;99.90;;;-0.07;100.00;99783.88;10511985;28;20694;-82
2022/11/20 00:14:04;;;;;;;12.93;5.37;;;2.50;99.90;;;-0.03;100.00;99794.94;10484172;28;20052;-82
2022/11/20 00:19:07;;;;;;;15.60;7.03;;;2.50;99.90;;;-0.03;100.00;99794.94;10492377;28;20061;-82
2022/11/20 00:24:10;;;;;;;11.07;4.67;;;2.50;99.90;;;-0.03;100.00;99794.94;10501875;28;20060;-82
2022/11/20 00:29:13;;;;;;;18.97;6.97;;;2.50;99.90;;;-0.07;100.00;99785.66;10507878;28;20127;-82
2022/11/20 00:34:16;;;;;;;19.17;6.93;;;2.50;99.90;;;-0.08;100.00;99787.44;10511561;28;20068;-82
2022/11/20 00:39:19;;;;;;;26.10;8.90;;;2.50;99.90;;;-0.08;100.00;99782.22;10511356;28;20453;-82
2022/11/20 00:44:22;;;;;;;31.17;10.13;;;2.50;99.90;;;-0.09;100.00;99793.59;10484068;28;20053;-82
2022/11/20 00:49:25;;;;;;;20.60;7.87;;;2.50;99.90;;;-0.07;100.00;99822.22;10457724;28;20058;-82
2022/11/20 00:54:28;;;;;;;19.87;8.60;;;2.50;99.90;;;-0.05;100.00;99808.13;10501781;28;20148;-82
2022/11/20 00:59:31;;;;;;;25.90;8.90;;;2.50;99.90;;;-0.06;100.00;99801.25;10501521;28;20057;-82
2022/11/20 01:04:34;;;;;;;21.70;8.40;;;2.50;99.90;;;-0.03;100.00;99808.84;10511204;28;20118;-82
2022/11/20 01:09:37;;;;;;;21.37;6.90;;;2.50;99.90;;;-0.07;100.00;99798.72;10500775;28;20152;-82
2022/11/20 01:14:40;;;;;;;19.13;7.17;;;2.50;99.90;;;-0.13;100.00;99807.81;10483907;28;20372;-82
2022/11/20 01:19:43;;;;;;;22.57;7.73;;;2.40;99.90;;;-0.20;100.00;99795.31;10480481;28;20057;-81
2022/11/20 01:24:47;;;;;;;26.23;8.03;;;2.30;99.90;;;-0.24;100.00;99807.78;10517764;28;20067;-82
2022/11/20 01:29:49;;;;;;;19.10;6.73;;;2.30;99.90;;;-0.30;100.00;99802.94;10486882;28;20065;-83
2022/11/20 01:34:52;;;;;;;19.27;7.17;;;2.30;99.90;;;-0.35;100.00;99798.09;10526423;28;20547;-81
2022/11/20 01:39:55;;;;;;;22.00;8.10;;;2.20;99.90;;;-0.40;100.00;99781.91;10500801;28;20083;-82
2022/11/20 01:45:00;;;;;;;23.63;7.83;;;2.20;99.90;;;-0.38;100.00;99774.78;10534066;28;20150;-81
2022/11/20 01:50:16;;;;;;;38.40;9.20;;;2.20;99.90;;;-0.33;100.00;99767.47;10482368;28;20767;-81
2022/11/20 01:55:30;;;;;;;19.13;7.00;;;2.30;99.90;;;-0.33;100.00;99764.84;10497546;28;20063;-81
2022/11/20 02:00:33;;;;;;;19.30;7.83;;;2.30;99.90;;;-0.29;100.00;99750.66;10512079;28;20049;-81
2022/11/20 02:05:57;;;;;;;16.37;6.50;;;2.30;99.90;;;-0.22;100.00;99755.44;10496434;28;20058;-81
2022/11/20 02:11:00;;;;;;;21.30;7.77;;;2.30;99.90;;;-0.18;100.00;99756.84;10495873;28;20130;-81
2022/11/20 02:16:04;;;;;;;22.07;7.77;;;2.40;99.90;;;-0.13;100.00;99755.59;10515692;28;20092;-81
2022/11/20 02:21:30;;;;;;;23.23;7.73;;;2.40;99.90;;;-0.08;100.00;99745.63;10497176;28;20115;-81
2022/11/20 02:26:50;;;;;;;18.00;6.93;;;2.50;99.90;;;-0.04;100.00;99735.81;10500071;28;20061;-81
2022/11/20 02:31:56;;;;;;;16.43;7.10;;;2.50;99.90;;;0.03;100.00;99741.44;10468575;28;20068;-81
2022/11/20 02:37:00;;;;;;;21.67;8.37;;;2.60;99.90;;;0.07;100.00;99742.88;10482761;28;20053;-82
2022/11/20 02:42:03;;;;;;;20.07;7.87;;;2.60;99.90;;;0.06;100.00;99720.28;10498473;28;20052;-82
2022/11/20 02:47:06;;;;;;;20.90;7.90;;;2.60;99.90;;;0.06;100.00;99722.91;10482419;28;20064;-82
2022/11/20 02:52:09;;;;;;;19.27;7.77;;;2.60;99.90;;;0.08;100.00;99728.88;10521937;28;20172;-81
2022/11/20 02:57:12;;;;;;;19.60;7.60;;;2.60;99.90;;;0.08;100.00;99745.38;10487316;28;20060;-81
2022/11/20 03:02:15;;;;;;;16.70;7.43;;;2.60;99.90;;;0.10;100.00;99738.25;10502050;28;20505;-81
2022/11/20 03:07:17;;;;;;;22.97;8.13;;;2.60;99.90;;;0.11;100.00;99742.50;10497390;28;20060;-81
2022/11/20 03:12:21;;;;;;;23.20;8.53;;;2.60;99.90;;;0.12;100.00;99717.22;10505616;28;20544;-81
2022/11/20 03:17:24;;;;;;;17.70;8.77;;;2.60;99.90;;;0.13;100.00;99730.19;10450409;28;20511;-81
2022/11/20 03:22:30;;;;;;;26.03;10.57;;;2.70;99.90;;;0.14;100.00;99726.63;10468936;28;20065;-82
2022/11/20 03:27:34;;;;;;;20.50;8.00;;;2.70;99.90;;;0.17;100.00;99742.06;10464249;28;20065;-82
2022/11/20 03:32:37;;;;;;;24.00;8.53;;;2.70;99.90;;;0.19;100.00;99755.03;10511774;28;20069;-82
2022/11/20 03:37:40;;;;;;;21.43;9.67;;;2.70;99.90;;;0.20;100.00;99747.09;10515653;28;20472;-82
2022/11/20 03:42:46;;;;;;;20.60;8.43;;;2.70;99.90;;;0.23;100.00;99725.94;10521023;28;20139;-82
2022/11/20 03:47:49;;;;;;;20.47;8.97;;;2.70;99.90;;;0.24;100.00;99735.47;10505120;28;20057;-82
2022/11/20 03:52:52;;;;;;;19.13;7.87;;;2.80;99.90;;;0.23;100.00;99740.78;10518122;28;20064;-82
2022/11/20 03:57:55;;;;;;;18.67;8.27;;;2.80;99.90;;;0.21;100.00;99747.91;10500615;28;20584;-82
2022/11/20 04:02:59;;;;;;;22.87;9.97;;;2.70;99.90;;;0.20;100.00;99733.19;10465557;28;20417;-82
2022/11/20 04:08:03;;;;;;;21.50;9.30;;;2.70;99.90;;;0.16;100.00;99731.72;10465762;28;20056;-81
2022/11/20 04:13:06;;;;;;;22.80;9.27;;;2.70;99.90;;;0.13;100.00;99727.59;10519663;28;20555;-81
2022/11/20 04:18:09;;;;;;;21.07;8.97;;;2.70;99.90;;;0.13;100.00;99716.31;10501855;28;20072;-81
2022/11/20 04:23:12;;;;;;;19.27;8.90;;;2.60;99.90;;;0.10;100.00;99719.13;10482508;28;20108;-82
2022/11/20 04:28:15;;;;;;;19.10;8.00;;;2.60;99.90;;;0.10;100.00;99714.72;10464499;28;20057;-81
2022/11/20 04:33:18;;;;;;;21.63;8.90;;;2.60;99.90;;;0.08;100.00;99693.13;10529607;28;20134;-82
2022/11/20 04:38:21;;;;;;;24.70;9.03;;;2.60;99.90;;;0.11;100.00;99679.81;10475837;28;20068;-82
2022/11/20 04:43:24;;;;;;;19.77;8.23;;;2.60;99.90;;;0.09;100.00;99684.31;10486877;28;20440;-82
2022/11/20 04:48:29;;;;;;;20.83;7.97;;;2.60;99.90;;;0.11;100.00;99695.50;10458967;28;20532;-82
2022/11/20 04:53:32;;;;;;;21.47;8.70;;;2.60;99.90;;;0.15;100.00;99694.31;10512519;28;20053;-82
2022/11/20 04:58:35;;;;;;;22.87;9.57;;;2.60;99.90;;;0.20;100.00;99671.31;10489972;28;20060;-82
2022/11/20 05:03:40;;;;;;;25.53;8.80;;;2.70;99.90;;;0.22;100.00;99658.94;10471247;28;20057;-82
2022/11/20 05:08:44;;;;;;;22.90;8.30;;;2.80;99.90;;;0.24;100.00;99662.28;10490624;28;20060;-82
2022/11/20 05:13:50;;;;;;;14.97;6.53;;;2.80;99.90;;;0.25;100.00;99668.34;10485705;28;20053;-82
2022/11/20 05:18:55;;;;;;;20.73;8.10;;;2.80;99.90;;;0.30;100.00;99666.22;10485898;28;20529;-82
2022/11/20 05:23:58;;;;;;;21.33;8.77;;;2.90;99.90;;;0.34;100.00;99666.81;10449065;28;20057;-81
2022/11/20 05:29:01;;;;;;;20.40;8.17;;;2.90;99.90;;;0.36;100.00;99667.53;10499899;28;20057;-81
2022/11/20 05:34:04;;;;;;;18.40;7.97;;;2.90;99.90;;;0.41;100.00;99652.31;10516081;28;20432;-81
2022/11/20 05:39:07;;;;;;;20.23;7.57;;;2.90;99.90;;;0.39;100.00;99649.00;10512488;28;20088;-82
2022/11/20 05:44:13;;;;;;;17.00;7.40;;;2.90;99.90;;;0.33;100.00;99652.91;10482280;28;20457;-81
2022/11/20 05:49:16;;;;;;;22.33;8.73;;;2.80;99.90;;;0.28;100.00;99652.44;10496609;28;20390;-81
2022/11/20 05:54:18;;;;;;;16.93;8.07;;;2.80;99.90;;;0.24;100.00;99667.53;10464068;28;20061;-81
2022/11/20 05:59:21;;;;;;;22.70;8.20;;;2.70;99.90;;;0.25;100.00;99665.75;10474360;28;20088;-82
2022/11/20 06:04:25;;;;;;;20.03;8.40;;;2.70;99.90;;;0.30;100.00;99670.59;10456082;28;20072;-80
2022/11/20 06:09:28;;;;;;;21.87;9.17;;;2.80;99.90;;;0.35;100.00;99673.69;10487963;28;20068;-81
2022/11/20 06:14:31;;;;;;;30.67;12.67;;;2.80;99.90;;;0.41;100.00;99668.00;10498121;28;20115;-81
2022/11/20 06:19:35;;;;;;;30.47;12.27;;;2.90;99.90;;;0.49;100.00;99670.91;10502686;28;20061;-81
2022/11/20 06:24:38;;;;;;;30.60;11.60;;;3.00;99.90;;;0.55;100.00;99678.28;10502272;28;20138;-81
2022/11/20 06:29:40;;;;;;;21.27;9.63;;;3.10;99.90;;;0.60;100.00;99659.59;10506646;28;20111;-81
2022/11/20 06:34:43;;;;;;;22.93;9.00;;;3.10;99.90;;;0.64;100.00;99674.09;10503243;28;20500;-81
2022/11/20 06:39:46;;;;;;;20.33;9.33;;;3.10;99.90;;;0.70;100.00;99684.94;10486886;28;20068;-81
2022/11/20 06:44:49;;;;;;;18.33;8.13;;;3.20;99.90;;;0.77;100.00;99685.28;10501918;28;20543;-81
2022/11/20 06:49:52;;;;;;;16.70;8.03;;;3.30;99.90;;;0.86;100.00;99700.28;10469270;28;20049;-81
2022/11/20 06:54:55;;;;;;;16.47;7.47;;;3.30;99.90;;;0.94;100.00;99708.38;10491338;28;20057;-81
2022/11/20 06:59:58;;;;;;;22.50;10.07;;;3.40;99.90;;;1.03;100.00;99709.47;10477155;28;20057;-81
2022/11/20 07:05:01;;;;;;;28.20;11.77;;;3.50;99.90;;;1.09;100.00;99706.34;10496580;28;20063;-81
2022/11/20 07:10:05;;;;;;;19.97;9.80;;;3.60;99.90;;;1.12;100.00;99710.50;10504630;28;20057;-80
2022/11/20 07:15:09;;;;;;;21.30;9.17;;;3.60;99.90;;;1.15;100.00;99713.72;10474170;28;20504;-81
2022/11/20 07:20:13;;;;;;;24.90;11.67;;;3.60;99.90;;;1.19;100.00;99706.47;10479021;28;20065;-78
2022/11/20 07:25:16;;;;;;;25.00;11.30;;;3.60;99.90;;;1.24;100.00;99705.16;10499338;28;20602;-78
2022/11/20 07:30:19;;;;;;;21.93;9.50;;;3.70;99.90;;;1.31;100.00;99711.56;10489399;28;20111;-79
2022/11/20 07:35:24;;;;;;;25.43;9.70;;;3.80;99.90;;;1.41;100.00;99718.69;10537931;28;20072;-78
2022/11/20 07:40:27;;;;;;;22.47;9.63;;;3.90;99.90;;;1.49;100.00;99714.50;10471154;28;20053;-78
2022/11/20 07:45:29;;;;;;;25.63;11.13;;;4.00;99.90;;;1.62;100.00;99719.63;10493294;28;20152;-77
2022/11/20 07:50:33;;;;;;;22.73;10.23;;;4.10;99.90;;;1.72;100.00;99704.00;10484980;28;20065;-77
2022/11/20 07:55:36;;;;;;;23.27;10.87;;;4.20;99.90;;;1.76;100.00;99705.41;10498520;28;20053;-77
2022/11/20 08:00:38;;;;;;;22.77;10.17;;;4.20;99.90;;;1.85;100.00;99713.34;10475196;28;20061;-77
2022/11/20 08:05:42;;;;;;;31.97;17.10;;;4.30;99.90;;;1.96;100.00;99714.28;10483584;28;20099;-77
2022/11/20 08:10:45;;;;;;;26.10;12.93;;;4.40;99.90;;;2.03;100.00;99718.06;10490784;28;20057;-78
2022/11/20 08:15:53;;;;;;;21.30;10.40;;;4.50;99.90;;;2.11;100.00;99715.66;10518597;28;20524;-80
2022/11/20 08:20:56;;;;;;;21.87;11.20;;;4.60;99.90;;;2.16;100.00;99708.25;10471580;28;20061;-77
2022/11/20 08:25:59;;;;;;;25.97;12.80;;;4.60;99.90;;;2.20;100.00;99720.13;10487358;28;20057;-77
2022/11/20 08:31:03;;;;;;;25.80;12.07;;;4.70;99.90;;;2.27;100.00;99725.69;10523148;28;20424;-77
2022/11/20 08:36:06;;;;;;;33.37;14.47;;;4.70;99.90;;;2.37;100.00;99711.72;10495209;28;20061;-77
2022/11/20 08:41:25;;;;;;;30.90;12.93;;;4.80;99.90;;;2.49;100.00;99704.59;10516935;28;20057;-77
2022/11/20 08:46:39;;;;;;;25.20;11.87;;;4.90;99.90;;;2.66;100.00;99716.31;10462263;28;20776;-77
2022/11/20 08:51:42;;;;;;;27.87;13.47;;;5.10;99.90;;;2.81;100.00;99719.41;10518935;28;20429;-77
2022/11/20 08:56:45;;;;;;;31.53;14.23;;;5.20;99.90;;;2.92;100.00;99729.84;10497654;28;20056;-78
2022/11/20 09:01:48;;;;;;;22.07;11.93;;;5.30;99.90;;;3.02;100.00;99725.50;10466514;28;20064;-78
2022/11/20 09:06:51;;;;;;;27.90;12.90;;;5.50;99.90;;;3.11;100.00;99735.19;10492478;28;20510;-78
2022/11/20 09:11:54;;;;;;;28.87;11.97;;;5.60;99.90;;;3.18;100.00;99732.88;10508057;28;20064;-78
2022/11/20 09:16:58;;;;;;;22.70;12.27;;;5.60;99.90;;;3.26;100.00;99724.34;10527246;28;20084;-78
2022/11/20 09:22:00;;;;;;;36.20;16.23;;;5.70;99.90;;;3.32;100.00;99729.06;10455541;28;20058;-78
2022/11/20 09:27:05;;;;;;;45.23;18.87;;;5.80;99.90;;;3.34;100.00;99738.47;10488888;28;20065;-78
2022/11/20 09:32:07;;;;;;;31.37;15.60;;;5.80;99.90;;;3.43;100.00;99735.06;10468085;28;20057;-77
2022/11/20 09:37:10;;;;;;;33.77;16.37;;;5.90;99.90;;;3.51;100.00;99737.00;10469522;28;20512;-78
2022/11/20 09:42:35;;;;;;;28.83;14.37;;;6.00;99.90;;;3.60;100.00;99728.31;10487215;28;20057;-78
2022/11/20 09:47:58;;;;;;;26.93;12.67;;;6.00;99.90;;;3.72;100.00;99722.00;10492789;28;20057;-78
2022/11/20 09:53:28;;;;;;;26.03;13.03;;;6.20;99.90;;;3.85;100.00;99721.72;10498953;28;20073;-78
2022/11/20 09:58:45;;;;;;;20.93;11.40;;;6.30;99.90;;;3.92;100.00;99714.13;10479292;28;20107;-77
2022/11/20 10:03:58;;;;;;;26.70;13.23;;;6.40;99.90;;;4.06;100.00;99712.88;10514751;28;20507;-82
2022/11/20 10:09:27;;;;;;;27.00;12.03;;;6.50;99.90;;;4.23;100.00;99701.66;10483396;28;20061;-83
2022/11/20 10:15:23;;;;;;;23.67;12.63;;;6.70;99.90;;;4.64;100.00;99683.88;10503333;28;20147;-82
2022/11/20 10:21:26;;;;;;;22.90;12.07;;;7.00;99.90;;;5.07;100.00;99673.63;10478423;28;20058;-83
2022/11/20 10:26:58;;;;;;;27.58;12.43;;;7.50;99.90;;;5.41;99.97;99664.31;10480775;28;20063;-82
2022/11/20 10:32:10;;;;;;;26.13;12.90;;;7.80;99.90;;;5.71;99.66;99647.34;10462327;28;20151;-78
2022/11/20 10:37:22;;;;;;;18.60;9.87;;;8.20;99.90;;;6.04;96.05;99645.84;10498366;28;20148;-78
2022/11/20 10:42:42;;;;;;;21.00;13.00;;;8.60;99.90;;;6.38;94.07;99640.66;10495117;28;20517;-78
2022/11/20 10:47:45;;;;;;;16.37;8.73;;;8.90;99.90;;;6.39;88.31;99642.31;10493374;28;20069;-78
2022/11/20 10:53:04;;;;;;;15.33;8.27;;;9.00;99.90;;;6.40;83.51;99644.78;10467979;28;20053;-78
2022/11/20 10:58:14;;;;;;;17.83;9.57;;;9.10;99.90;;;6.38;81.25;99643.31;10502709;28;20057;-77
2022/11/20 11:03:27;;;;;;;17.80;9.07;;;9.10;99.90;;;6.20;79.64;99639.88;10520258;28;20061;-78
2022/11/20 11:08:37;;;;;;;25.03;12.40;;;8.80;99.90;;;6.13;80.39;99640.47;10502264;28;20068;-78
2022/11/20 11:13:40;;;;;;;18.27;9.47;;;8.60;99.90;;;5.94;79.17;99647.72;10464192;28;20068;-78
2022/11/20 11:18:44;;;;;;;26.67;11.60;;;8.40;99.90;;;5.85;79.87;99652.91;10535838;28;20467;-78
2022/11/20 11:23:46;;;;;;;21.67;9.67;;;8.30;99.90;;;5.71;79.24;99665.78;10505778;28;20471;-78
2022/11/20 11:29:19;;;;;;;18.40;9.73;;;8.10;99.90;;;5.60;79.90;99669.47;10489071;28;20065;-78
2022/11/20 11:34:23;;;;;;;18.33;9.60;;;8.00;99.90;;;5.59;80.15;99687.09;10463363;28;20140;-78
2022/11/20 11:39:28;;;;;;;16.73;8.77;;;8.00;99.90;;;5.76;81.30;99685.44;10501737;28;20156;-78
2022/11/20 11:50:11;;;;;;;21.50;10.47;;;8.20;99.90;;;5.85;79.56;99652.06;10491425;28;20123;-84
2022/11/20 11:55:34;;;;;;;22.60;11.23;;;8.30;99.90;;;5.80;79.28;99634.06;10500267;28;20485;-83
2022/11/20 12:00:41;;;;;;;24.77;10.77;;;8.20;99.90;;;5.74;79.69;99626.75;10487029;28;20517;-87
2022/11/20 12:05:55;;;;;;;85.63;29.20;;;8.20;99.90;;;5.68;79.99;99619.44;10476266;28;20057;-83
2022/11/20 12:11:35;;;;;;;43.67;22.03;;;8.10;99.90;;;5.48;80.07;99624.03;10460610;28;20111;-79
2022/11/20 12:16:39;;;;;;;25.13;13.80;;;7.90;99.90;;;5.29;81.02;99637.34;10469621;28;20061;-80
2022/11/20 12:22:16;;;;;;;31.13;14.97;;;7.70;99.90;;;5.05;81.31;99637.88;10473741;28;20060;-80
2022/11/20 12:27:56;;;;;;;40.37;18.57;;;7.50;99.90;;;4.89;82.50;99643.75;10480126;28;20049;-80
2022/11/20 12:33:40;;;;;;;49.93;25.30;;;7.30;99.90;;;4.80;83.31;99637.56;10490073;28;20057;-80
2022/11/20 12:39:09;;;;;;;26.70;12.50;;;7.20;99.90;;;4.74;83.73;99618.91;10448710;28;20057;-80
2022/11/20 12:50:52;;;;;;;19.20;10.30;;;7.10;99.90;;;4.76;84.93;99607.25;10486998;28;20061;-81
2022/11/20 12:56:32;;;;;;;22.67;11.87;;;7.10;99.90;;;4.80;85.28;99608.63;10470612;28;20052;-84
2022/11/20 13:01:49;;;;;;;29.23;13.23;;;7.10;99.90;;;4.84;85.36;99619.66;10481513;28;20064;-83
2022/11/20 13:06:53;;;;;;;22.20;10.80;;;7.20;99.90;;;4.88;85.62;99618.41;10522863;28;20138;-83
2022/11/20 13:12:15;;;;;;;26.47;11.30;;;7.20;99.90;;;4.94;85.84;99620.47;10474182;28;20061;-83
2022/11/20 13:17:18;;;;;;;24.67;11.37;;;7.30;99.90;;;5.06;86.05;99627.19;10498218;28;20061;-83
2022/11/20 13:22:57;;;;;;;24.83;12.20;;;7.40;99.90;;;5.19;85.81;99631.28;10485300;28;20063;-84
2022/11/20 13:28:20;;;;;;;25.60;11.70;;;7.60;99.90;;;5.26;84.71;99633.19;10486689;28;20151;-83
2022/11/20 13:33:31;;;;;;;20.20;10.80;;;7.60;99.90;;;5.24;84.50;99631.69;10487486;28;20064;-83
2022/11/20 13:38:48;;;;;;;23.77;11.95;;;7.60;99.90;;;5.22;84.53;99623.09;10475591;28;20143;-83
2022/11/20 13:43:53;;;;;;;22.53;12.17;;;7.60;99.90;;;5.18;84.84;99617.28;10473482;28;20061;-83
2022/11/20 13:48:57;;;;;;;20.10;10.63;;;7.50;99.90;;;5.09;84.73;99605.81;10484314;28;20061;-83
2022/11/20 13:54:27;;;;;;;20.33;8.93;;;7.50;99.90;;;5.02;84.62;99606.56;10498060;28;20053;-83
2022/11/20 13:59:58;;;;;;;19.27;8.43;;;7.40;99.90;;;4.97;85.24;99601.72;10496554;28;20064;-83
2022/11/20 14:05:03;;;;;;;20.03;8.87;;;7.40;99.90;;;4.97;86.62;99601.72;10526994;28;20092;-84
2022/11/20 14:10:23;;;;;;;12.70;6.57;;;7.40;99.90;;;4.97;87.93;99593.00;10511010;28;20068;-83
2022/11/20 14:15:34;;;;;;;19.50;9.30;;;7.40;99.90;;;4.94;88.98;99596.75;10485059;28;20065;-84
2022/11/20 14:20:43;;;;;;;24.70;10.23;;;7.40;99.90;;;4.84;89.52;99601.25;10458956;28;20057;-81
2022/11/20 14:25:46;;;;;;;17.30;8.03;;;7.30;99.90;;;4.71;89.16;99598.94;10475059;28;20054;-81
2022/11/20 14:30:50;;;;;;;16.03;8.23;;;7.20;99.90;;;4.56;89.12;99598.59;10506296;28;20088;-83
2022/11/20 14:35:58;;;;;;;20.20;9.80;;;7.10;99.90;;;4.41;89.44;99613.16;10503472;28;20096;-81
2022/11/20 14:41:16;;;;;;;22.03;10.17;;;6.90;99.90;;;4.17;88.94;99613.63;10477677;28;20068;-79
2022/11/20 14:46:19;;;;;;;23.60;10.00;;;6.70;99.90;;;3.99;88.93;99617.97;10511141;28;20053;-79
2022/11/20 14:51:42;;;;;;;22.43;9.87;;;6.50;99.90;;;3.84;89.45;99617.56;10520847;28;20091;-81
2022/11/20 14:57:01;;;;;;;18.30;9.43;;;6.30;99.90;;;3.69;89.98;99621.56;10500140;28;20060;-82
2022/11/20 15:02:09;;;;;;;34.20;15.50;;;6.10;99.90;;;3.52;90.25;99628.31;10510566;28;20463;-81
2022/11/20 15:07:28;;;;;;;48.67;22.07;;;6.00;99.90;;;3.37;90.87;99630.53;10513351;28;20061;-84
2022/11/20 15:12:37;;;;;;;34.07;15.70;;;5.80;99.90;;;3.23;91.48;99641.41;10517821;28;20057;-83
2022/11/20 15:17:41;;;;;;;36.67;18.47;;;5.60;99.90;;;3.11;91.81;99637.22;10464294;28;20164;-83
2022/11/20 15:22:45;;;;;;;40.67;18.97;;;5.50;99.90;;;2.98;92.70;99644.50;10484417;28;20523;-82
2022/11/20 15:27:56;;;;;;;36.93;16.87;;;5.40;99.90;;;2.82;93.13;99643.22;10488941;28;20149;-81
2022/11/20 15:32:58;;;;;;;50.70;23.57;;;5.30;99.90;;;2.65;93.77;99636.78;10478778;28;20065;-81
2022/11/20 15:38:02;;;;;;;57.57;23.83;;;5.20;99.90;;;2.52;94.24;99640.56;10474792;28;20061;-82
2022/11/20 15:43:08;;;;;;;62.87;30.23;;;5.10;99.90;;;2.40;94.99;99638.03;10465616;28;20053;-80
2022/11/20 15:48:24;;;;;;;76.60;35.13;;;4.90;99.90;;;2.34;95.91;99645.56;10493863;28;20131;-84
2022/11/20 15:53:27;;;;;;;;;;;4.80;99.90;;;2.26;96.29;99650.63;10467300;28;20449;-82
2022/11/20 15:58:30;;;;;;;111.27;39.50;;;4.70;99.90;;;2.18;96.86;99648.66;10495707;28;19972;-81
2022/11/20 16:03:33;;;;;;;117.47;43.00;;;4.70;99.90;;;2.14;97.52;99647.25;10504001;28;20103;-81
2022/11/20 16:08:36;;;;;;;105.23;37.63;;;4.60;99.90;;;2.12;98.17;99638.69;10495231;28;20072;-82
2022/11/20 16:19:01;;;;;;;;;;;4.60;99.90;;;2.03;99.08;99639.44;10488214;28;20061;-81
2022/11/20 16:24:06;;;;;;;117.63;39.70;;;4.50;99.90;;;1.94;99.28;99642.81;10484747;28;19929;-81
2022/11/20 16:29:09;;;;;;;102.47;34.90;;;4.40;99.90;;;1.83;99.66;99639.28;10507890;28;20098;-80
2022/11/20 16:34:15;;;;;;;89.27;36.23;;;4.30;99.90;;;1.77;99.99;99644.19;10470414;28;20093;-81
2022/11/20 16:39:18;;;;;;;111.33;41.93;;;4.20;99.90;;;1.70;100.00;99649.13;10474498;28;20088;-81
2022/11/20 16:44:25;;;;;;;76.00;34.53;;;4.20;99.90;;;1.60;100.00;99646.41;10487462;28;20092;-81
2022/11/20 16:49:28;;;;;;;82.13;33.00;;;4.10;99.90;;;1.45;100.00;99650.28;10521248;28;20060;-81
2022/11/20 16:54:31;;;;;;;56.97;24.50;;;3.90;99.90;;;1.29;100.00;99639.34;10479409;28;20061;-81
2022/11/20 16:59:37;;;;;;;42.93;20.73;;;3.80;99.90;;;1.13;100.00;99638.91;10517280;28;20061;-80
2022/11/20 17:04:40;;;;;;;64.07;24.60;;;3.60;99.90;;;0.97;100.00;99626.22;10511833;28;20071;-81
2022/11/20 17:09:43;;;;;;;124.07;55.40;;;3.50;99.90;;;0.82;100.00;99630.00;10494552;28;20088;-81
2022/11/20 17:14:45;;;;;;;77.30;29.37;;;3.40;99.90;;;0.70;100.00;99618.72;10530567;27;20513;-80
2022/11/20 17:19:48;;;;;;;145.60;56.50;;;3.20;99.90;;;0.62;100.00;99615.88;10473531;28;20060;-80
2022/11/20 17:24:52;;;;;;;156.40;55.87;;;3.10;99.90;;;0.51;100.00;99606.25;10471421;28;20509;-80
2022/11/20 17:29:57;;;;;;;110.93;42.13;;;3.00;99.90;;;0.42;100.00;99606.94;10513589;28;20087;-80
2022/11/20 17:35:00;;;;;;;133.40;51.30;;;2.90;99.90;;;0.32;100.00;99600.78;10495852;28;20111;-80
2022/11/20 17:40:04;;;;;;;141.20;51.60;;;2.80;99.90;;;0.20;100.00;99603.38;10476272;28;20120;-80
2022/11/20 17:45:07;;;;;;;99.23;39.73;;;2.70;99.90;;;0.07;100.00;99615.69;10510229;28;20132;-80
2022/11/20 17:50:10;;;;;;;82.73;34.43;;;2.60;99.90;;;-0.04;100.00;99605.22;10491846;28;20097;-80
2022/11/20 17:55:13;;;;;;;46.57;19.27;;;2.50;99.90;;;-0.16;100.00;99613.97;10491504;28;20061;-80
2022/11/20 18:00:17;;;;;;;50.03;24.73;;;2.40;99.90;;;-0.23;100.00;99605.75;10483323;28;20083;-80
2022/11/20 18:05:20;;;;;;;121.07;48.13;;;2.30;99.90;;;-0.28;100.00;99610.47;10503889;28;20096;-80
2022/11/20 18:10:23;;;;;;;133.53;57.97;;;2.30;99.90;;;-0.27;100.00;99597.31;10511737;28;20072;-80
2022/11/20 18:15:26;;;;;;;81.10;34.67;;;2.20;99.90;;;-0.30;100.00;99615.81;10469144;28;20057;-80
2022/11/20 18:20:28;;;;;;;76.70;32.13;;;2.20;99.90;;;-0.33;100.00;99616.03;10511097;28;20091;-80
2022/11/20 18:25:38;;;;;;;92.50;35.83;;;2.20;99.90;;;-0.39;100.00;99615.66;10510820;28;20130;-80
2022/11/20 18:30:41;;;;;;;95.47;37.73;;;2.10;99.90;;;-0.44;100.00;99621.22;10476718;28;20437;-80
2022/11/20 18:35:44;;;;;;;111.97;45.23;;;2.10;99.90;;;-0.42;100.00;99635.00;10477078;28;20088;-80
2022/11/20 18:40:47;;;;;;;60.20;23.60;;;2.10;99.90;;;-0.44;100.00;99647.31;10478980;28;20061;-80
2022/11/20 18:45:51;;;;;;;49.57;21.77;;;2.10;99.90;;;-0.50;100.00;99646.91;10489657;28;20054;-83
2022/11/20 18:50:54;;;;;;;55.70;23.53;;;2.10;99.90;;;-0.54;100.00;99654.13;10478215;28;20065;-80
2022/11/20 18:55:57;;;;;;;49.43;23.57;;;2.00;99.90;;;-0.62;100.00;99664.31;10490802;28;20065;-81
2022/11/20 19:01:07;;;;;;;56.20;21.37;;;1.90;99.90;;;-0.72;100.00;99673.72;10464579;28;20060;-81
2022/11/20 19:06:13;;;;;;;46.57;18.57;;;1.90;99.90;;;-0.82;100.00;99665.72;10471367;28;20148;-81
2022/11/20 19:11:17;;;;;;;37.87;17.80;;;1.80;99.90;;;-0.92;100.00;99665.53;10492984;28;20446;-81
2022/11/20 19:16:21;;;;;;;57.10;22.60;;;1.70;99.90;;;-0.99;100.00;99669.50;10440346;28;20053;-81
2022/11/20 19:21:25;;;;;;;58.67;23.73;;;1.60;99.90;;;-1.03;100.00;99669.81;10499499;28;20061;-81
2022/11/20 19:26:29;;;;;;;48.23;19.27;;;1.50;99.90;;;-1.10;100.00;99662.44;10494206;28;20107;-81
2022/11/20 19:31:32;;;;;;;51.27;18.83;;;1.50;99.90;;;-1.18;100.00;99674.34;10481350;28;20065;-81
2022/11/20 19:36:38;;;;;;;49.57;20.73;;;1.40;99.90;;;-1.22;100.00;99691.97;10496643;28;20061;-81
2022/11/20 19:41:46;;;;;;;64.63;21.93;;;1.40;99.90;;;-1.29;100.00;99689.88;10504066;28;20404;-81
2022/11/20 19:46:49;;;;;;;52.83;21.27;;;1.30;99.90;;;-1.36;100.00;99672.06;10484560;28;20068;-81
2022/11/20 19:51:52;;;;;;;40.70;16.90;;;1.30;99.90;;;-1.42;100.00;99658.63;10498890;28;20057;-81
2022/11/20 19:56:55;;;;;;;36.10;15.40;;;1.20;99.90;;;-1.43;100.00;99670.81;10515574;28;20063;-81
2022/11/20 20:01:58;;;;;;;37.80;14.17;;;1.20;99.90;;;-1.39;100.00;99668.81;10514854;28;20057;-82
2022/11/20 20:07:02;;;;;;;38.03;14.30;;;1.20;99.90;;;-1.24;100.00;99648.69;10434104;28;20061;-81
2022/11/20 20:52:20;;;;;;;23.57;10.23;;;2.20;99.90;;;-0.08;100.00;99588.94;10467775;28;20065;-81
2022/11/20 20:57:24;;;;;;;26.97;11.43;;;2.30;99.90;;;-0.01;100.00;99591.91;10498984;28;20151;-81
2022/11/20 21:02:27;;;;;;;36.67;14.27;;;2.40;99.90;;;0.03;100.00;99603.81;10485967;28;20065;-81
2022/11/20 21:07:30;;;;;;;34.30;13.80;;;2.40;99.90;;;0.09;100.00;99597.28;10463793;28;20064;-81
2022/11/20 21:12:32;;;;;;;41.63;18.57;;;2.50;99.90;;;0.02;100.00;99602.16;10519043;28;20065;-81
2022/11/20 21:17:35;;;;;;;40.33;17.70;;;2.50;99.90;;;-0.19;100.00;99601.94;10485694;28;20543;-81
2022/11/20 21:22:38;;;;;;;48.67;19.80;;;2.30;99.90;;;-0.32;100.00;99615.09;10501039;28;20111;-81
2022/11/20 21:27:42;;;;;;;54.53;21.97;;;2.20;99.90;;;-0.48;100.00;99611.09;10517983;28;20080;-81
2022/11/20 21:32:44;;;;;;;48.50;18.63;;;2.00;99.90;;;-0.63;100.00;99608.66;10511358;28;20064;-81
2022/11/20 21:37:47;;;;;;;67.10;26.97;;;1.90;99.90;;;-0.80;100.00;99616.88;10488080;28;20061;-81
2022/11/20 21:42:52;;;;;;;47.57;20.03;;;1.80;99.90;;;-0.99;100.00;99614.75;10477329;28;20087;-81
2022/11/20 21:47:55;;;;;;;73.33;22.80;;;1.60;99.90;;;-1.05;100.00;99623.00;10484148;28;20063;-81
2022/11/20 21:52:58;;;;;;;70.10;25.00;;;1.50;99.90;;;-1.20;100.00;99624.06;10504410;28;20416;-82
2022/11/20 21:58:01;;;;;;;133.03;32.40;;;1.40;99.90;;;-1.26;100.00;99622.75;10471191;28;20062;-81
2022/11/20 22:03:05;;;;;;;62.93;22.60;;;1.30;99.90;;;-1.35;100.00;99626.81;10509176;28;20508;-82
2022/11/20 22:08:08;;;;;;;48.60;17.83;;;1.30;99.90;;;-1.44;100.00;99617.03;10499749;28;20057;-82